createdAt,value
2022-09-09T00:01:31.838Z,19.96
2022-09-09T00:04:05.670Z,19.94
2022-09-09T00:06:37.696Z,19.93
2022-09-09T00:09:13.522Z,19.92
2022-09-09T00:11:45.072Z,19.90
2022-09-09T00:14:23.814Z,19.90
2022-09-09T00:16:57.628Z,19.87
2022-09-09T00:19:33.341Z,19.86
2022-09-09T00:22:15.568Z,19.84
2022-09-09T00:24:47.064Z,19.83
2022-09-09T00:27:24.827Z,19.81
2022-09-09T00:29:57.239Z,19.79
2022-09-09T00:32:30.046Z,19.78
2022-09-09T00:35:03.897Z,19.78
2022-09-09T00:37:34.777Z,19.75
2022-09-09T00:40:08.998Z,19.74
2022-09-09T00:42:44.735Z,19.74
2022-09-09T00:45:32.508Z,19.72
2022-09-09T00:48:07.397Z,19.70
2022-09-09T00:50:48.150Z,19.72
2022-09-09T00:53:26.739Z,19.73
2022-09-09T00:56:05.267Z,19.73
2022-09-09T00:58:33.782Z,19.72
2022-09-09T01:01:08.574Z,19.73
2022-09-09T01:03:38.357Z,19.72
2022-09-09T01:06:18.912Z,19.72
2022-09-09T01:09:12.697Z,19.70
2022-09-09T01:11:53.439Z,19.73
2022-09-09T01:14:40.884Z,19.73
2022-09-09T01:17:15.924Z,19.73
2022-09-09T01:19:56.272Z,19.72
2022-09-09T01:22:54.896Z,19.71
2022-09-09T01:25:32.240Z,19.71
2022-09-09T01:28:05.554Z,19.70
2022-09-09T01:30:35.400Z,19.69
2022-09-09T01:33:04.265Z,19.69
2022-09-09T01:35:42.503Z,19.69
2022-09-09T01:38:10.938Z,19.67
2022-09-09T01:40:38.997Z,19.65
2022-09-09T01:43:08.919Z,19.65
2022-09-09T01:45:37.377Z,19.65
2022-09-09T01:48:05.680Z,19.64
2022-09-09T01:50:33.507Z,19.63
2022-09-09T01:53:03.684Z,19.63
2022-09-09T01:55:34.597Z,19.60
2022-09-09T01:58:19.669Z,19.63
2022-09-09T02:01:02.650Z,19.63
2022-09-09T02:03:34.682Z,19.62
2022-09-09T02:06:16.287Z,19.63
2022-09-09T02:08:48.037Z,19.62
2022-09-09T02:11:17.825Z,19.59
2022-09-09T02:13:49.213Z,19.60
2022-09-09T02:16:23.869Z,19.60
2022-09-09T02:18:55.901Z,19.59
2022-09-09T02:21:25.360Z,19.59
2022-09-09T02:23:54.964Z,19.59
2022-09-09T02:26:24.424Z,19.59
2022-09-09T02:28:57.798Z,19.60
2022-09-09T02:31:27.106Z,19.57
2022-09-09T02:34:00.466Z,19.59
2022-09-09T02:36:32.240Z,19.55
2022-09-09T02:39:00.152Z,19.54
2022-09-09T02:41:35.714Z,19.56
2022-09-09T02:44:08.349Z,19.40
2022-09-09T02:47:00.749Z,19.54
2022-09-09T02:49:41.029Z,19.53
2022-09-09T02:52:12.114Z,19.51
2022-09-09T02:54:40.666Z,19.51
2022-09-09T02:57:13.377Z,19.50
2022-09-09T02:59:42.777Z,19.44
2022-09-09T03:02:12.799Z,19.47
2022-09-09T03:04:41.097Z,19.45
2022-09-09T03:07:08.899Z,19.45
2022-09-09T03:09:36.835Z,19.42
2022-09-09T03:12:05.242Z,19.40
2022-09-09T03:14:33.252Z,19.40
2022-09-09T03:17:03.424Z,19.39
2022-09-09T03:19:31.444Z,19.37
2022-09-09T03:21:59.291Z,19.36
2022-09-09T03:24:27.435Z,19.36
2022-09-09T03:26:57.052Z,19.37
2022-09-09T03:29:24.794Z,19.34
2022-09-09T03:31:52.677Z,19.36
2022-09-09T03:34:22.039Z,19.36
2022-09-09T03:36:50.572Z,19.37
2022-09-09T03:39:18.991Z,19.37
2022-09-09T03:41:48.886Z,19.35
2022-09-09T03:44:17.029Z,19.34
2022-09-09T03:46:45.036Z,19.32
2022-09-09T03:49:12.760Z,19.31
2022-09-09T03:51:42.157Z,19.30
2022-09-09T03:54:11.229Z,19.29
2022-09-09T03:56:39.309Z,19.29
2022-09-09T03:59:07.025Z,19.28
2022-09-09T04:01:35.163Z,19.28
2022-09-09T04:04:03.341Z,19.27
2022-09-09T04:06:31.688Z,19.26
2022-09-09T04:09:03.581Z,19.28
2022-09-09T04:11:31.748Z,19.27
2022-09-09T04:13:59.475Z,19.27
2022-09-09T04:16:27.369Z,19.27
2022-09-09T04:18:55.493Z,19.27
2022-09-09T04:21:24.209Z,19.27
2022-09-09T04:23:52.251Z,19.29
2022-09-09T04:26:21.929Z,19.29
2022-09-09T04:28:49.699Z,19.29
2022-09-09T04:31:20.963Z,19.27
2022-09-09T04:33:49.222Z,19.28
2022-09-09T04:36:17.269Z,19.27
2022-09-09T04:38:45.442Z,19.27
2022-09-09T04:41:14.375Z,19.24
2022-09-09T04:43:43.562Z,19.26
2022-09-09T04:46:11.824Z,19.24
2022-09-09T04:48:40.279Z,19.24
2022-09-09T04:51:11.321Z,19.23
2022-09-09T04:53:39.423Z,19.17
2022-09-09T04:56:11.001Z,19.23
2022-09-09T04:58:39.854Z,19.22
2022-09-09T05:01:11.561Z,19.22
2022-09-09T05:03:39.635Z,19.19
2022-09-09T05:06:09.518Z,19.18
2022-09-09T05:08:38.333Z,19.17
2022-09-09T05:11:06.345Z,19.15
2022-09-09T05:13:36.416Z,19.18
2022-09-09T05:16:07.434Z,19.17
2022-09-09T05:18:37.210Z,19.16
2022-09-09T05:21:05.137Z,19.15
2022-09-09T05:23:32.833Z,19.17
2022-09-09T05:26:01.047Z,19.18
2022-09-09T05:28:29.633Z,19.17
2022-09-09T05:30:59.261Z,19.17
2022-09-09T05:33:28.005Z,19.17
2022-09-09T05:36:06.415Z,19.19
2022-09-09T05:38:34.823Z,19.19
2022-09-09T05:41:03.516Z,19.17
2022-09-09T05:43:32.626Z,19.19
2022-09-09T05:46:05.302Z,19.20
2022-09-09T05:48:34.063Z,19.20
2022-09-09T05:51:04.543Z,19.23
2022-09-09T05:53:35.260Z,19.23
2022-09-09T05:56:05.431Z,19.22
2022-09-09T05:58:33.483Z,19.24
2022-09-09T06:01:08.410Z,19.25
2022-09-09T06:03:36.880Z,19.26
2022-09-09T06:06:08.215Z,19.26
2022-09-09T06:08:38.112Z,19.26
2022-09-09T06:11:07.688Z,19.27
2022-09-09T06:13:36.485Z,19.27
2022-09-09T06:16:05.285Z,19.29
2022-09-09T06:18:33.023Z,19.30
2022-09-09T06:21:02.616Z,19.31
2022-09-09T06:23:32.257Z,19.32
2022-09-09T06:26:06.838Z,19.35
2022-09-09T06:28:35.153Z,19.36
2022-09-09T06:31:04.832Z,19.38
2022-09-09T06:33:35.940Z,19.37
2022-09-09T06:36:06.046Z,19.38
2022-09-09T06:38:35.245Z,19.39
2022-09-09T06:41:03.241Z,19.39
2022-09-09T06:43:31.255Z,19.39
2022-09-09T06:46:00.962Z,19.42
2022-09-09T06:48:29.954Z,19.44
2022-09-09T06:51:05.488Z,19.48
2022-09-09T06:53:35.634Z,19.46
2022-09-09T06:56:03.817Z,19.46
2022-09-09T06:58:32.342Z,19.48
2022-09-09T07:01:06.894Z,19.52
2022-09-09T07:03:36.016Z,19.52
2022-09-09T07:06:05.143Z,19.53
2022-09-09T07:08:33.595Z,19.53
2022-09-09T07:11:11.622Z,19.54
2022-09-09T07:13:40.276Z,19.53
2022-09-09T07:16:09.255Z,19.55
2022-09-09T07:18:37.179Z,19.56
2022-09-09T07:21:06.127Z,19.56
2022-09-09T07:23:36.265Z,19.58
2022-09-09T07:26:10.732Z,19.60
2022-09-09T07:28:38.954Z,19.60
2022-09-09T07:31:07.604Z,19.62
2022-09-09T07:33:37.110Z,19.63
2022-09-09T07:36:07.643Z,19.63
2022-09-09T07:38:40.691Z,19.64
2022-09-09T07:41:12.951Z,19.65
2022-09-09T07:43:42.084Z,19.67
2022-09-09T07:46:10.828Z,19.65
2022-09-09T07:48:38.770Z,19.67
2022-09-09T07:51:09.793Z,19.67
2022-09-09T07:53:39.260Z,19.67
2022-09-09T07:56:10.523Z,19.66
2022-09-09T07:58:40.406Z,19.67
2022-09-09T08:01:10.938Z,19.68
2022-09-09T08:03:39.327Z,19.69
2022-09-09T08:06:09.956Z,19.71
2022-09-09T08:08:39.918Z,19.74
2022-09-09T08:11:09.983Z,19.78
2022-09-09T08:13:40.691Z,19.83
2022-09-09T08:16:12.493Z,19.88
2022-09-09T08:18:41.095Z,19.90
2022-09-09T08:21:12.702Z,19.92
2022-09-09T08:23:42.298Z,19.96
2022-09-09T08:26:13.178Z,19.99
2022-09-09T08:28:43.073Z,20.01
2022-09-09T08:31:13.696Z,20.05
2022-09-09T08:33:42.151Z,20.04
2022-09-09T08:36:13.444Z,20.07
2022-09-09T08:38:41.317Z,20.10
2022-09-09T08:41:33.382Z,20.12
2022-09-09T08:44:07.848Z,20.09
2022-09-09T08:46:46.988Z,20.11
2022-09-09T08:49:28.853Z,20.11
2022-09-09T08:51:58.467Z,20.10
2022-09-09T08:54:51.302Z,20.10
2022-09-09T08:57:28.209Z,20.10
2022-09-09T08:59:58.619Z,20.07
2022-09-09T09:02:32.655Z,20.04
2022-09-09T09:05:11.800Z,20.06
2022-09-09T09:07:54.877Z,20.08
2022-09-09T09:10:42.064Z,20.10
2022-09-09T09:13:17.058Z,20.07
2022-09-09T09:15:51.026Z,20.11
2022-09-09T09:18:19.614Z,20.09
2022-09-09T09:20:56.285Z,20.10
2022-09-09T09:23:26.293Z,20.06
2022-09-09T09:26:01.572Z,20.04
2022-09-09T09:28:32.420Z,20.01
2022-09-09T09:31:07.717Z,20.02
2022-09-09T09:33:37.726Z,20.03
2022-09-09T09:36:09.131Z,20.05
2022-09-09T09:41:38.127Z,20.03
2022-09-09T09:44:07.112Z,20.03
2022-09-09T09:46:36.427Z,20.01
2022-09-09T09:49:06.549Z,19.99
2022-09-09T09:51:37.742Z,19.97
2022-09-09T09:54:17.182Z,19.98
2022-09-09T09:56:46.460Z,19.95
2022-09-09T09:59:41.491Z,19.95
2022-09-09T10:02:26.011Z,19.97
2022-09-09T10:05:04.593Z,19.93
2022-09-09T10:07:33.459Z,19.93
2022-09-09T10:10:01.632Z,19.93
2022-09-09T10:12:46.300Z,19.95
2022-09-09T10:15:31.538Z,19.95
2022-09-09T10:18:17.945Z,19.97
2022-09-09T10:20:52.030Z,19.99
2022-09-09T10:23:35.572Z,20.00
2022-09-09T10:26:29.012Z,20.00
2022-09-09T10:29:26.404Z,20.02
2022-09-09T10:32:03.972Z,20.02
2022-09-09T10:34:52.521Z,20.02
2022-09-09T10:37:35.047Z,20.03
2022-09-09T10:40:16.605Z,20.05
2022-09-09T10:42:44.767Z,20.05
2022-09-09T10:45:21.432Z,20.08
2022-09-09T10:48:05.612Z,20.10
2022-09-09T10:51:01.269Z,20.14
2022-09-09T10:53:42.530Z,20.18
2022-09-09T10:56:12.910Z,20.23
2022-09-09T10:58:45.223Z,20.28
2022-09-09T11:01:20.261Z,20.32
2022-09-09T11:03:56.420Z,20.38
2022-09-09T11:06:31.081Z,20.46
2022-09-09T11:09:03.518Z,20.48
2022-09-09T11:11:37.285Z,20.53
2022-09-09T11:14:11.597Z,20.58
2022-09-09T11:16:44.668Z,20.60
2022-09-09T11:19:19.150Z,20.63
2022-09-09T11:21:50.633Z,20.64
2022-09-09T11:24:25.417Z,20.68
2022-09-09T11:26:58.697Z,20.71
2022-09-09T11:29:54.876Z,20.72
2022-09-09T11:32:56.217Z,20.76
2022-09-09T11:35:37.043Z,20.80
2022-09-09T11:38:22.415Z,20.81
2022-09-09T11:40:58.900Z,20.87
2022-09-09T11:43:30.270Z,20.82
2022-09-09T11:46:01.540Z,20.90
2022-09-09T11:48:35.645Z,20.89
2022-09-09T11:51:10.076Z,20.92
2022-09-09T11:53:52.112Z,20.92
2022-09-09T11:56:28.714Z,20.95
2022-09-09T11:58:59.876Z,20.93
2022-09-09T12:01:46.939Z,20.95
2022-09-09T12:04:34.819Z,20.96
2022-09-09T12:07:05.282Z,20.97
2022-09-09T12:09:46.270Z,21.00
2022-09-09T12:12:28.988Z,20.98
2022-09-09T12:15:13.845Z,21.02
2022-09-09T12:17:45.774Z,21.04
2022-09-09T12:20:17.927Z,21.07
2022-09-09T12:23:02.068Z,21.08
2022-09-09T12:25:42.324Z,21.11
2022-09-09T12:28:17.330Z,21.13
2022-09-09T12:30:52.322Z,21.13
2022-09-09T12:33:22.919Z,21.14
2022-09-09T12:36:01.966Z,21.13
2022-09-09T12:38:35.202Z,21.16
2022-09-09T12:41:05.756Z,21.17
2022-09-09T12:43:34.527Z,21.17
2022-09-09T12:46:06.654Z,21.18
2022-09-09T12:48:38.723Z,21.17
2022-09-09T12:51:17.475Z,21.16
2022-09-09T12:53:48.306Z,21.25
2022-09-09T12:56:25.364Z,21.30
2022-09-09T12:58:54.865Z,21.31
2022-09-09T13:01:26.236Z,21.37
2022-09-09T13:03:54.971Z,21.41
2022-09-09T13:06:28.770Z,21.46
2022-09-09T13:08:59.915Z,21.51
2022-09-09T13:11:34.071Z,21.55
2022-09-09T13:14:02.307Z,21.56
2022-09-09T13:16:33.380Z,21.59
2022-09-09T13:19:04.464Z,21.61
2022-09-09T13:21:38.308Z,21.67
2022-09-09T13:24:08.738Z,21.68
2022-09-09T13:26:39.627Z,21.74
2022-09-09T13:29:20.057Z,21.79
2022-09-09T13:31:48.791Z,21.83
2022-09-09T13:34:29.383Z,21.90
2022-09-09T13:37:02.595Z,21.95
2022-09-09T13:39:31.359Z,22.01
2022-09-09T13:42:00.996Z,22.06
2022-09-09T13:44:33.383Z,22.03
2022-09-09T13:47:10.164Z,22.13
2022-09-09T13:49:38.611Z,22.17
2022-09-09T13:52:10.924Z,22.23
2022-09-09T13:54:39.362Z,22.25
2022-09-09T13:57:19.176Z,22.31
2022-09-09T14:00:04.039Z,22.33
2022-09-09T14:02:35.657Z,22.38
2022-09-09T14:05:04.120Z,22.37
2022-09-09T14:07:33.240Z,22.39
2022-09-09T14:10:01.520Z,22.40
2022-09-09T14:12:31.497Z,22.41
2022-09-09T14:15:00.827Z,22.43
2022-09-09T14:17:32.391Z,22.44
2022-09-09T14:20:01.154Z,22.47
2022-09-09T14:22:29.541Z,22.49
2022-09-09T14:24:58.771Z,22.51
2022-09-09T14:27:27.621Z,22.48
2022-09-09T14:29:58.979Z,22.49
2022-09-09T14:32:27.042Z,22.48
2022-09-09T14:34:55.189Z,22.48
2022-09-09T14:37:23.256Z,22.48
2022-09-09T14:39:51.812Z,22.49
2022-09-09T14:42:20.183Z,22.49
2022-09-09T14:44:49.044Z,22.50
2022-09-09T14:47:18.444Z,22.49
2022-09-09T14:49:47.325Z,22.53
2022-09-09T14:52:15.773Z,22.55
2022-09-09T14:54:43.979Z,22.55
2022-09-09T14:57:14.015Z,22.57
2022-09-09T14:59:42.447Z,22.55
2022-09-09T15:02:11.439Z,22.57
2022-09-09T15:04:41.679Z,22.58
2022-09-09T15:07:10.294Z,22.56
2022-09-09T15:09:38.853Z,22.59
2022-09-09T15:12:07.520Z,22.58
2022-09-09T15:14:36.427Z,22.59
2022-09-09T15:17:05.018Z,22.60
2022-09-09T15:19:33.663Z,22.61
2022-09-09T15:22:03.688Z,22.66
2022-09-09T15:24:32.020Z,22.67
2022-09-09T15:27:00.519Z,22.68
2022-09-09T15:29:28.838Z,22.67
2022-09-09T15:31:57.695Z,22.66
2022-09-09T15:34:26.532Z,22.68
2022-09-09T15:36:56.417Z,22.70
2022-09-09T15:39:29.111Z,22.67
2022-09-09T15:41:57.350Z,22.65
2022-09-09T15:44:26.578Z,22.65
2022-09-09T15:46:56.029Z,22.64
2022-09-09T15:49:26.874Z,22.63
2022-09-09T15:51:56.882Z,22.60
2022-09-09T15:54:28.369Z,22.59
2022-09-09T15:56:58.761Z,22.57
2022-09-09T15:59:28.951Z,22.58
2022-09-09T16:01:57.454Z,22.57
2022-09-09T16:04:27.406Z,22.58
2022-09-09T16:06:58.674Z,22.59
2022-09-09T16:09:29.436Z,22.54
2022-09-09T16:11:59.987Z,22.55
2022-09-09T16:14:28.484Z,22.52
2022-09-09T16:16:59.165Z,22.51
2022-09-09T16:19:27.443Z,22.51
2022-09-09T16:21:55.695Z,22.47
2022-09-09T16:24:25.225Z,22.45
2022-09-09T16:26:56.611Z,22.45
2022-09-09T16:29:28.749Z,22.42
2022-09-09T16:32:01.383Z,22.40
2022-09-09T16:34:34.979Z,22.32
2022-09-09T16:37:03.694Z,22.28
2022-09-09T16:39:32.488Z,22.19
2022-09-09T16:42:02.530Z,22.13
2022-09-09T16:44:31.482Z,22.03
2022-09-09T16:47:01.058Z,21.95
2022-09-09T16:49:32.822Z,21.89
2022-09-09T16:52:02.930Z,21.82
2022-09-09T16:54:31.077Z,21.78
2022-09-09T16:57:01.939Z,21.75
2022-09-09T16:59:32.776Z,21.69
2022-09-09T17:02:02.110Z,21.68
2022-09-09T17:04:32.150Z,21.63
2022-09-09T17:07:02.022Z,21.62
2022-09-09T17:09:32.513Z,21.61
2022-09-09T17:12:02.739Z,21.60
2022-09-09T17:14:32.841Z,21.58
2022-09-09T17:17:19.260Z,21.56
2022-09-09T17:19:51.620Z,21.52
2022-09-09T17:22:21.224Z,21.50
2022-09-09T17:24:49.595Z,21.44
2022-09-09T17:27:19.511Z,21.42
2022-09-09T17:29:47.959Z,21.40
2022-09-09T17:32:16.763Z,21.39
2022-09-09T17:34:44.881Z,21.37
2022-09-09T17:37:14.419Z,21.35
2022-09-09T17:39:42.912Z,21.34
2022-09-09T17:42:11.633Z,21.32
2022-09-09T17:44:41.074Z,21.30
2022-09-09T17:47:10.318Z,21.29
2022-09-09T17:49:39.627Z,21.27
2022-09-09T17:52:08.851Z,21.24
2022-09-09T17:54:37.323Z,21.20
2022-09-09T17:57:06.065Z,21.17
2022-09-09T17:59:34.140Z,21.14
2022-09-09T18:02:06.013Z,21.13
2022-09-09T18:04:34.127Z,21.08
2022-09-09T18:07:03.045Z,21.05
2022-09-09T18:09:32.622Z,21.03
2022-09-09T18:12:02.214Z,21.02
2022-09-09T18:14:32.320Z,20.99
2022-09-09T18:17:01.889Z,20.96
2022-09-09T18:19:34.564Z,20.93
2022-09-09T18:22:05.211Z,20.88
2022-09-09T18:24:33.469Z,20.86
2022-09-09T18:27:01.997Z,20.83
2022-09-09T18:29:30.365Z,20.80
2022-09-09T18:31:58.682Z,20.76
2022-09-09T18:34:29.028Z,20.74
2022-09-09T18:36:58.778Z,20.71
2022-09-09T18:39:28.937Z,20.68
2022-09-09T18:41:59.553Z,20.64
2022-09-09T18:44:30.313Z,20.63
2022-09-09T18:46:58.274Z,20.61
2022-09-09T18:49:26.979Z,20.59
2022-09-09T18:51:56.490Z,20.57
2022-09-09T18:54:29.906Z,20.58
2022-09-09T18:56:58.165Z,20.55
2022-09-09T18:59:28.448Z,20.54
2022-09-09T19:01:57.106Z,20.54
2022-09-09T19:04:27.622Z,20.53
2022-09-09T19:06:58.943Z,20.52
2022-09-09T19:09:31.934Z,20.52
2022-09-09T19:12:01.175Z,20.52
2022-09-09T19:14:30.228Z,20.50
2022-09-09T19:16:58.702Z,20.49
2022-09-09T19:19:29.866Z,20.48
2022-09-09T19:21:58.322Z,20.49
2022-09-09T19:24:29.696Z,20.48
2022-09-09T19:27:01.752Z,20.46
2022-09-09T19:29:32.208Z,20.43
2022-09-09T19:34:50.655Z,20.42
2022-09-09T19:37:19.432Z,20.41
2022-09-09T19:39:49.620Z,20.39
2022-09-09T19:42:18.190Z,20.36
2022-09-09T19:44:46.594Z,20.34
2022-09-09T19:47:15.241Z,20.30
2022-09-09T19:49:46.976Z,20.25
2022-09-09T19:52:16.248Z,20.19
2022-09-09T19:54:44.598Z,20.17
2022-09-09T19:57:14.173Z,20.16
2022-09-09T19:59:42.665Z,20.13
2022-09-09T20:02:13.875Z,20.11
2022-09-09T20:04:42.070Z,20.06
2022-09-09T20:07:10.178Z,20.04
2022-09-09T20:09:38.065Z,20.03
2022-09-09T20:12:06.680Z,20.01
2022-09-09T20:14:39.566Z,20.02
2022-09-09T20:17:08.705Z,19.99
2022-09-09T20:19:36.720Z,19.96
2022-09-09T20:22:05.083Z,19.95
2022-09-09T20:24:33.414Z,19.91
2022-09-09T20:27:02.714Z,19.90
2022-09-09T20:29:30.736Z,19.89
2022-09-09T20:32:00.366Z,19.88
2022-09-09T20:34:30.010Z,19.87
2022-09-09T20:36:59.750Z,19.89
2022-09-09T20:39:28.113Z,19.85
2022-09-09T20:41:57.273Z,19.84
2022-09-09T20:44:25.664Z,19.80
2022-09-09T20:46:57.553Z,19.82
2022-09-09T20:49:28.116Z,19.83
2022-09-09T20:51:57.688Z,19.82
2022-09-09T20:54:28.097Z,19.77
2022-09-09T20:56:56.769Z,19.76
2022-09-09T20:59:27.170Z,19.77
2022-09-09T21:01:57.087Z,19.73
2022-09-09T21:04:27.470Z,19.75
2022-09-09T21:06:55.822Z,19.74
2022-09-09T21:09:24.725Z,19.72
2022-09-09T21:11:54.051Z,19.73
2022-09-09T21:14:22.767Z,19.71
2022-09-09T21:16:51.020Z,19.72
2022-09-09T21:19:19.454Z,19.71
2022-09-09T21:21:49.346Z,19.71
2022-09-09T21:24:17.791Z,19.70
2022-09-09T21:26:45.804Z,19.69
2022-09-09T21:29:14.589Z,19.71
2022-09-09T21:31:44.220Z,19.70
2022-09-09T21:34:13.868Z,19.70
2022-09-09T21:36:42.140Z,19.68
2022-09-09T21:39:12.447Z,19.68
2022-09-09T21:41:40.540Z,19.63
2022-09-09T21:44:10.177Z,19.62
2022-09-09T21:46:38.700Z,19.59
2022-09-09T21:49:07.550Z,19.61
2022-09-09T21:51:35.719Z,19.61
2022-09-09T21:54:04.125Z,19.62
2022-09-09T21:56:33.496Z,19.61
2022-09-09T21:59:04.420Z,19.59
2022-09-09T22:01:34.424Z,19.60
2022-09-09T22:04:04.047Z,19.58
2022-09-09T22:06:32.116Z,19.57
2022-09-09T22:09:01.783Z,19.58
2022-09-09T22:11:31.058Z,19.57
2022-09-09T22:14:00.716Z,19.58
2022-09-09T22:16:29.239Z,19.57
2022-09-09T22:18:59.249Z,19.55
2022-09-09T22:21:29.722Z,19.57
2022-09-09T22:23:59.813Z,19.54
2022-09-09T22:26:32.020Z,19.57
2022-09-09T22:29:01.744Z,19.55
2022-09-09T22:31:30.631Z,19.57
2022-09-09T22:33:58.879Z,19.57
2022-09-09T22:36:27.971Z,19.57
2022-09-09T22:38:56.827Z,19.56
2022-09-09T22:41:26.076Z,19.56
2022-09-09T22:43:54.154Z,19.57
2022-09-09T22:46:24.587Z,19.59
2022-09-09T22:48:52.758Z,19.58
2022-09-09T22:51:21.531Z,19.58
2022-09-09T22:53:49.649Z,19.57
2022-09-09T22:56:20.677Z,19.60
2022-09-09T22:58:50.137Z,19.59
2022-09-09T23:01:21.082Z,19.61
2022-09-09T23:03:51.959Z,19.62
2022-09-09T23:06:22.901Z,19.62
2022-09-09T23:08:53.760Z,19.64
2022-09-09T23:11:22.340Z,19.63
2022-09-09T23:13:53.713Z,19.65
2022-09-09T23:16:24.069Z,19.64
2022-09-09T23:18:55.796Z,19.64
2022-09-09T23:21:28.664Z,19.66
2022-09-09T23:23:57.951Z,19.66
2022-09-09T23:26:30.396Z,19.68
2022-09-09T23:28:59.523Z,19.66
2022-09-09T23:31:30.388Z,19.69
2022-09-09T23:34:01.031Z,19.67
2022-09-09T23:36:31.048Z,19.67
2022-09-09T23:39:00.072Z,19.67
2022-09-09T23:41:28.891Z,19.69
2022-09-09T23:43:58.319Z,19.66
2022-09-09T23:46:28.806Z,19.65
2022-09-09T23:48:58.508Z,19.67
2022-09-09T23:51:30.691Z,19.69
2022-09-09T23:54:03.450Z,19.69
2022-09-09T23:56:33.660Z,19.70
2022-09-09T23:59:02.184Z,19.65
